sensor_id;sensor_type;location;lat;lon;timestamp;pressure;altitude;pressure_sealevel;temperature;humidity
13476;BME280;6810;63.824;20.288;2023-04-24T07:11:17;100671.13;;;1.23;71.66
13476;BME280;6810;63.824;20.288;2023-04-24T07:13:44;100683.28;;;1.26;72.19
13476;BME280;6810;63.824;20.288;2023-04-24T07:16:11;100683.25;;;1.27;72.23
13476;BME280;6810;63.824;20.288;2023-04-24T07:18:38;100694.56;;;1.31;72.65
13476;BME280;6810;63.824;20.288;2023-04-24T07:21:06;100708.56;;;1.31;72.36
13476;BME280;6810;63.824;20.288;2023-04-24T07:23:33;100708.47;;;1.36;72.54
13476;BME280;6810;63.824;20.288;2023-04-24T07:26:00;100711.88;;;1.39;72.57
13476;BME280;6810;63.824;20.288;2023-04-24T07:28:27;100645.31;;;1.04;72.72
13476;BME280;6810;63.824;20.288;2023-04-24T07:30:57;100675.63;;;1.17;72.30
13476;BME280;6810;63.824;20.288;2023-04-24T07:33:26;100705.84;;;1.36;72.88
13476;BME280;6810;63.824;20.288;2023-04-24T07:35:53;100723.16;;;1.44;72.91
13476;BME280;6810;63.824;20.288;2023-04-24T07:38:21;100659.16;;;1.09;73.14
13476;BME280;6810;63.824;20.288;2023-04-24T07:41:08;100717.84;;;1.47;72.96
13476;BME280;6810;63.824;20.288;2023-04-24T07:43:55;100726.53;;;1.51;72.97
13476;BME280;6810;63.824;20.288;2023-04-24T07:46:42;100723.91;;;1.51;73.18
13476;BME280;6810;63.824;20.288;2023-04-24T07:49:29;100716.16;;;1.45;72.93
13476;BME280;6810;63.824;20.288;2023-04-24T07:52:16;100736.03;;;1.56;72.89
13476;BME280;6810;63.824;20.288;2023-04-24T07:55:03;100749.16;;;1.56;72.90
13476;BME280;6810;63.824;20.288;2023-04-24T07:57:53;100703.34;;;1.30;73.06
13476;BME280;6810;63.824;20.288;2023-04-24T08:00:40;100749.09;;;1.59;72.50
13476;BME280;6810;63.824;20.288;2023-04-24T08:03:27;100754.38;;;1.58;73.10
13476;BME280;6810;63.824;20.288;2023-04-24T08:06:15;100760.41;;;1.63;72.75
13476;BME280;6810;63.824;20.288;2023-04-24T08:09:02;100761.25;;;1.65;72.82
13476;BME280;6810;63.824;20.288;2023-04-24T08:11:51;100764.72;;;1.65;72.73
13476;BME280;6810;63.824;20.288;2023-04-24T08:14:38;100729.16;;;1.51;72.78
13476;BME280;6810;63.824;20.288;2023-04-24T08:17:25;100769.91;;;1.68;72.67
13476;BME280;6810;63.824;20.288;2023-04-24T08:20:12;100774.25;;;1.71;72.35
13476;BME280;6810;63.824;20.288;2023-04-24T08:23:02;100779.44;;;1.74;72.64
13476;BME280;6810;63.824;20.288;2023-04-24T08:25:49;100761.16;;;1.68;72.25
13476;BME280;6810;63.824;20.288;2023-04-24T08:28:36;100773.19;;;1.78;72.01
13476;BME280;6810;63.824;20.288;2023-04-24T08:31:23;100763.69;;;1.72;71.80
13476;BME280;6810;63.824;20.288;2023-04-24T08:34:10;100786.22;;;1.83;71.90
13476;BME280;6810;63.824;20.288;2023-04-24T08:36:58;100796.69;;;1.86;71.68
13476;BME280;6810;63.824;20.288;2023-04-24T08:39:44;100774.06;;;1.78;72.00
13476;BME280;6810;63.824;20.288;2023-04-24T08:42:34;100785.16;;;1.93;72.02
13476;BME280;6810;63.824;20.288;2023-04-24T08:45:24;100747.03;;;1.73;71.75
13476;BME280;6810;63.824;20.288;2023-04-24T08:48:11;100793.72;;;1.99;71.52
13476;BME280;6810;63.824;20.288;2023-04-24T08:50:59;100768.63;;;1.88;71.66
13476;BME280;6810;63.824;20.288;2023-04-24T08:53:46;100809.34;;;2.07;71.19
13476;BME280;6810;63.824;20.288;2023-04-24T08:56:36;100789.31;;;2.01;71.23
13476;BME280;6810;63.824;20.288;2023-04-24T08:59:23;100803.06;;;2.14;71.20
13476;BME280;6810;63.824;20.288;2023-04-24T09:02:11;100809.06;;;2.19;71.99
13476;BME280;6810;63.824;20.288;2023-04-24T09:04:58;100815.06;;;2.24;71.89
13476;BME280;6810;63.824;20.288;2023-04-24T09:07:49;100822.84;;;2.28;71.01
13476;BME280;6810;63.824;20.288;2023-04-24T09:10:39;100795.03;;;2.20;71.34
13476;BME280;6810;63.824;20.288;2023-04-24T09:13:26;100806.03;;;2.37;71.36
13476;BME280;6810;63.824;20.288;2023-04-24T09:16:13;100818.16;;;2.42;70.68
13476;BME280;6810;63.824;20.288;2023-04-24T09:18:41;100822.41;;;2.46;70.54
13476;BME280;6810;63.824;20.288;2023-04-24T09:21:09;100826.72;;;2.50;70.45
13476;BME280;6810;63.824;20.288;2023-04-24T09:23:38;100824.81;;;2.55;70.75
13476;BME280;6810;63.824;20.288;2023-04-24T09:26:05;100826.53;;;2.58;69.96
13476;BME280;6810;63.824;20.288;2023-04-24T09:28:35;100825.56;;;2.62;70.56
13476;BME280;6810;63.824;20.288;2023-04-24T09:33:37;100808.94;;;2.61;70.29
13476;BME280;6810;63.824;20.288;2023-04-24T09:36:04;100763.00;;;2.39;70.38
13476;BME280;6810;63.824;20.288;2023-04-24T09:38:36;100812.00;;;2.77;69.74
13476;BME280;6810;63.824;20.288;2023-04-24T09:41:06;100785.16;;;2.64;70.48
13476;BME280;6810;63.824;20.288;2023-04-24T09:43:35;100793.63;;;2.75;70.31
13476;BME280;6810;63.824;20.288;2023-04-24T09:46:06;100813.44;;;2.90;69.81
13476;BME280;6810;63.824;20.288;2023-04-24T09:48:36;100815.00;;;2.97;70.83
13476;BME280;6810;63.824;20.288;2023-04-24T09:51:04;100806.16;;;3.01;70.28
13476;BME280;6810;63.824;20.288;2023-04-24T09:53:37;100813.03;;;3.05;70.50
13476;BME280;6810;63.824;20.288;2023-04-24T09:56:11;100775.69;;;2.91;70.22
13476;BME280;6810;63.824;20.288;2023-04-24T09:58:39;100810.16;;;3.14;69.35
13476;BME280;6810;63.824;20.288;2023-04-24T10:01:06;100810.00;;;3.20;70.17
13476;BME280;6810;63.824;20.288;2023-04-24T10:03:35;100802.34;;;3.11;69.35
13476;BME280;6810;63.824;20.288;2023-04-24T10:06:03;100825.56;;;3.29;70.24
13476;BME280;6810;63.824;20.288;2023-04-24T10:08:36;100809.88;;;3.24;70.01
13476;BME280;6810;63.824;20.288;2023-04-24T10:11:04;100829.81;;;3.34;70.29
13476;BME280;6810;63.824;20.288;2023-04-24T10:13:32;100827.88;;;3.39;69.18
13476;BME280;6810;63.824;20.288;2023-04-24T10:16:00;100832.06;;;3.48;69.92
13476;BME280;6810;63.824;20.288;2023-04-24T10:18:28;100828.28;;;3.56;69.77
13476;BME280;6810;63.824;20.288;2023-04-24T10:20:57;100816.91;;;3.56;69.55
13476;BME280;6810;63.824;20.288;2023-04-24T10:23:25;100790.84;;;3.45;69.51
13476;BME280;6810;63.824;20.288;2023-04-24T10:25:53;100840.66;;;3.85;70.12
13476;BME280;6810;63.824;20.288;2023-04-24T10:28:21;100849.09;;;3.96;69.91
13476;BME280;6810;63.824;20.288;2023-04-24T10:31:09;100833.13;;;4.01;69.84
13476;BME280;6810;63.824;20.288;2023-04-24T10:33:57;100847.28;;;4.27;68.50
13476;BME280;6810;63.824;20.288;2023-04-24T10:36:49;100862.63;;;4.42;68.11
13476;BME280;6810;63.824;20.288;2023-04-24T10:39:37;100870.13;;;4.56;69.28
13476;BME280;6810;63.824;20.288;2023-04-24T10:42:27;100867.28;;;4.62;68.72
13476;BME280;6810;63.824;20.288;2023-04-24T10:45:21;100807.56;;;4.32;67.22
13476;BME280;6810;63.824;20.288;2023-04-24T10:48:08;100878.16;;;4.79;67.06
13476;BME280;6810;63.824;20.288;2023-04-24T10:50:58;100877.91;;;4.86;66.92
13476;BME280;6810;63.824;20.288;2023-04-24T10:53:45;100875.31;;;4.85;67.11
13476;BME280;6810;63.824;20.288;2023-04-24T10:56:32;100882.09;;;4.93;67.08
13476;BME280;6810;63.824;20.288;2023-04-24T10:59:35;100880.22;;;4.97;67.36
13476;BME280;6810;63.824;20.288;2023-04-24T11:02:36;100886.97;;;5.05;67.49
13476;BME280;6810;63.824;20.288;2023-04-24T11:08:46;100900.97;;;5.07;66.65
13476;BME280;6810;63.824;20.288;2023-04-24T11:11:36;100912.53;;;5.05;66.56
13476;BME280;6810;63.824;20.288;2023-04-24T11:14:26;100914.25;;;5.06;66.29
13476;BME280;6810;63.824;20.288;2023-04-24T11:17:28;100918.69;;;5.05;66.88
13476;BME280;6810;63.824;20.288;2023-04-24T11:20:17;100890.13;;;4.90;66.22
13476;BME280;6810;63.824;20.288;2023-04-24T11:23:05;100915.50;;;4.94;66.48
13476;BME280;6810;63.824;20.288;2023-04-24T11:26:10;100947.59;;;5.10;66.17
13476;BME280;6810;63.824;20.288;2023-04-24T11:29:06;100953.66;;;5.12;66.95
13476;BME280;6810;63.824;20.288;2023-04-24T11:31:54;100964.94;;;5.17;65.42
13476;BME280;6810;63.824;20.288;2023-04-24T11:34:41;100957.84;;;5.19;64.72
13476;BME280;6810;63.824;20.288;2023-04-24T11:37:39;100953.34;;;5.22;64.64
13476;BME280;6810;63.824;20.288;2023-04-24T11:40:29;100955.97;;;5.22;65.75
13476;BME280;6810;63.824;20.288;2023-04-24T11:43:16;100964.59;;;5.27;64.63
13476;BME280;6810;63.824;20.288;2023-04-24T11:46:05;100958.28;;;5.33;64.75
13476;BME280;6810;63.824;20.288;2023-04-24T11:48:52;100961.69;;;5.35;65.61
13476;BME280;6810;63.824;20.288;2023-04-24T11:51:39;100952.94;;;5.34;64.96
13476;BME280;6810;63.824;20.288;2023-04-24T11:54:27;100962.41;;;5.40;64.95
13476;BME280;6810;63.824;20.288;2023-04-24T11:57:14;100965.06;;;5.40;63.98
13476;BME280;6810;63.824;20.288;2023-04-24T12:00:02;100904.69;;;5.02;64.65
13476;BME280;6810;63.824;20.288;2023-04-24T12:02:50;100962.41;;;5.40;64.71
13476;BME280;6810;63.824;20.288;2023-04-24T12:05:38;100952.88;;;5.36;63.74
13476;BME280;6810;63.824;20.288;2023-04-24T12:08:28;100962.28;;;5.45;63.82
13476;BME280;6810;63.824;20.288;2023-04-24T12:11:16;100977.19;;;5.47;62.79
13476;BME280;6810;63.824;20.288;2023-04-24T12:14:11;100972.78;;;5.46;63.48
13476;BME280;6810;63.824;20.288;2023-04-24T12:16:58;100985.16;;;5.46;62.93
13476;BME280;6810;63.824;20.288;2023-04-24T12:19:47;100980.78;;;5.45;63.69
13476;BME280;6810;63.824;20.288;2023-04-24T12:22:46;100984.22;;;5.47;63.59
13476;BME280;6810;63.824;20.288;2023-04-24T12:25:15;100962.47;;;5.38;62.72
13476;BME280;6810;63.824;20.288;2023-04-24T12:27:44;100980.56;;;5.51;62.54
13476;BME280;6810;63.824;20.288;2023-04-24T12:30:16;100974.34;;;5.53;62.85
13476;BME280;6810;63.824;20.288;2023-04-24T12:32:46;100972.47;;;5.55;62.28
13476;BME280;6810;63.824;20.288;2023-04-24T12:35:33;100979.47;;;5.58;62.27
13476;BME280;6810;63.824;20.288;2023-04-24T12:38:25;100978.53;;;5.59;62.09
13476;BME280;6810;63.824;20.288;2023-04-24T12:41:13;100978.47;;;5.60;62.61
13476;BME280;6810;63.824;20.288;2023-04-24T12:44:00;100985.69;;;5.55;61.54
13476;BME280;6810;63.824;20.288;2023-04-24T12:46:47;100991.81;;;5.57;62.29
13476;BME280;6810;63.824;20.288;2023-04-24T12:49:35;101007.66;;;5.57;61.81
13476;BME280;6810;63.824;20.288;2023-04-24T12:52:23;101004.16;;;5.57;61.31
13476;BME280;6810;63.824;20.288;2023-04-24T12:55:10;101017.31;;;5.58;61.66
13476;BME280;6810;63.824;20.288;2023-04-24T12:57:57;101024.50;;;5.55;60.85
13476;BME280;6810;63.824;20.288;2023-04-24T13:00:44;101021.00;;;5.54;61.19
13476;BME280;6810;63.824;20.288;2023-04-24T13:03:13;101028.91;;;5.54;61.84
13476;BME280;6810;63.824;20.288;2023-04-24T13:05:40;101024.59;;;5.52;61.15
13476;BME280;6810;63.824;20.288;2023-04-24T13:08:08;101024.56;;;5.53;60.66
13476;BME280;6810;63.824;20.288;2023-04-24T13:10:35;101022.75;;;5.54;60.97
13476;BME280;6810;63.824;20.288;2023-04-24T13:13:02;100981.44;;;5.25;60.11
13476;BME280;6810;63.824;20.288;2023-04-24T13:15:30;100994.44;;;5.31;60.31
13476;BME280;6810;63.824;20.288;2023-04-24T13:17:57;101027.41;;;5.47;59.94
13476;BME280;6810;63.824;20.288;2023-04-24T13:20:24;101036.19;;;5.48;59.85
13476;BME280;6810;63.824;20.288;2023-04-24T13:22:52;101030.06;;;5.47;61.15
13476;BME280;6810;63.824;20.288;2023-04-24T13:25:19;101019.53;;;5.44;60.85
13476;BME280;6810;63.824;20.288;2023-04-24T13:27:47;101012.59;;;5.42;59.78
13476;BME280;6810;63.824;20.288;2023-04-24T13:30:14;101020.25;;;5.49;60.56
13476;BME280;6810;63.824;20.288;2023-04-24T13:32:41;101024.56;;;5.53;60.70
13476;BME280;6810;63.824;20.288;2023-04-24T13:35:08;101026.31;;;5.53;60.59
13476;BME280;6810;63.824;20.288;2023-04-24T13:37:35;101025.31;;;5.57;60.33
13476;BME280;6810;63.824;20.288;2023-04-24T13:40:02;101024.31;;;5.61;61.40
13476;BME280;6810;63.824;20.288;2023-04-24T13:42:32;101036.69;;;5.59;61.20
13476;BME280;6810;63.824;20.288;2023-04-24T13:45:00;101039.28;;;5.60;60.78
13476;BME280;6810;63.824;20.288;2023-04-24T13:47:40;101041.16;;;5.57;60.56
13476;BME280;6810;63.824;20.288;2023-04-24T13:50:08;101050.03;;;5.56;60.10
13476;BME280;6810;63.824;20.288;2023-04-24T13:52:36;101009.47;;;5.29;61.04
13476;BME280;6810;63.824;20.288;2023-04-24T13:55:03;101043.13;;;5.52;61.10
13476;BME280;6810;63.824;20.288;2023-04-24T13:57:30;101037.34;;;5.39;60.81
13476;BME280;6810;63.824;20.288;2023-04-24T13:59:58;101081.91;;;5.51;60.82
13476;BME280;6810;63.824;20.288;2023-04-24T14:02:32;101070.59;;;5.46;60.81
13476;BME280;6810;63.824;20.288;2023-04-24T14:04:59;101076.06;;;5.40;59.90
13476;BME280;6810;63.824;20.288;2023-04-24T14:07:27;101086.69;;;5.38;60.42
13476;BME280;6810;63.824;20.288;2023-04-24T14:09:54;101078.13;;;5.30;60.76
13476;BME280;6810;63.824;20.288;2023-04-24T14:12:22;101074.69;;;5.28;59.48
13476;BME280;6810;63.824;20.288;2023-04-24T14:14:49;101086.09;;;5.29;60.77
13476;BME280;6810;63.824;20.288;2023-04-24T14:17:16;101083.56;;;5.26;60.66
13476;BME280;6810;63.824;20.288;2023-04-24T14:19:43;101090.66;;;5.25;60.79
13476;BME280;6810;63.824;20.288;2023-04-24T14:22:10;101083.88;;;5.15;59.36
13476;BME280;6810;63.824;20.288;2023-04-24T14:24:37;101098.66;;;5.22;59.50
13476;BME280;6810;63.824;20.288;2023-04-24T14:27:04;101104.03;;;5.19;60.58
13476;BME280;6810;63.824;20.288;2023-04-24T14:29:31;101099.84;;;5.12;60.81
13476;BME280;6810;63.824;20.288;2023-04-24T14:32:01;101106.63;;;5.21;60.28
13476;BME280;6810;63.824;20.288;2023-04-24T14:34:27;101105.72;;;5.22;59.45
13476;BME280;6810;63.824;20.288;2023-04-24T14:36:55;101101.31;;;5.22;60.28
13476;BME280;6810;63.824;20.288;2023-04-24T14:39:22;101091.69;;;5.20;60.13
13476;BME280;6810;63.824;20.288;2023-04-24T14:41:49;101091.97;;;5.11;59.51
13476;BME280;6810;63.824;20.288;2023-04-24T14:44:16;101096.25;;;5.15;59.13
13476;BME280;6810;63.824;20.288;2023-04-24T14:46:43;101092.84;;;5.11;59.26
13476;BME280;6810;63.824;20.288;2023-04-24T14:49:10;101051.50;;;4.81;60.40
13476;BME280;6810;63.824;20.288;2023-04-24T14:51:39;101099.16;;;5.06;59.94
13476;BME280;6810;63.824;20.288;2023-04-24T14:54:06;101092.19;;;5.03;60.40
13476;BME280;6810;63.824;20.288;2023-04-24T14:56:34;101098.41;;;5.02;60.40
13476;BME280;6810;63.824;20.288;2023-04-24T14:59:01;101098.44;;;5.01;60.54
13476;BME280;6810;63.824;20.288;2023-04-24T15:01:29;101096.72;;;4.98;60.50
13476;BME280;6810;63.824;20.288;2023-04-24T15:03:56;101019.66;;;4.57;59.74
13476;BME280;6810;63.824;20.288;2023-04-24T15:06:23;101094.13;;;4.97;60.40
13476;BME280;6810;63.824;20.288;2023-04-24T15:08:51;101100.28;;;4.97;59.61
13476;BME280;6810;63.824;20.288;2023-04-24T15:11:18;101101.97;;;5.00;59.56
13476;BME280;6810;63.824;20.288;2023-04-24T15:13:45;101107.38;;;4.95;60.45
13476;BME280;6810;63.824;20.288;2023-04-24T15:16:13;101110.72;;;5.02;59.52
13476;BME280;6810;63.824;20.288;2023-04-24T15:18:41;101108.09;;;5.02;59.74
13476;BME280;6810;63.824;20.288;2023-04-24T15:21:08;101111.59;;;5.02;60.55
13476;BME280;6810;63.824;20.288;2023-04-24T15:23:35;101101.03;;;5.02;60.39
13476;BME280;6810;63.824;20.288;2023-04-24T15:26:02;101101.94;;;5.01;58.83
13476;BME280;6810;63.824;20.288;2023-04-24T15:28:49;101103.81;;;4.98;59.50
13476;BME280;6810;63.824;20.288;2023-04-24T15:31:36;101108.41;;;4.91;59.60
13476;BME280;6810;63.824;20.288;2023-04-24T15:34:23;101107.44;;;4.94;59.90
13476;BME280;6810;63.824;20.288;2023-04-24T15:37:11;101116.22;;;4.94;59.92
13476;BME280;6810;63.824;20.288;2023-04-24T15:39:58;101113.59;;;4.94;60.22
13476;BME280;6810;63.824;20.288;2023-04-24T15:42:45;101116.19;;;4.96;60.31
13476;BME280;6810;63.824;20.288;2023-04-24T15:45:32;101116.16;;;4.97;60.52
13476;BME280;6810;63.824;20.288;2023-04-24T15:48:20;101117.03;;;4.98;60.32
13476;BME280;6810;63.824;20.288;2023-04-24T15:51:07;101120.56;;;4.97;60.19
13476;BME280;6810;63.824;20.288;2023-04-24T15:53:54;101117.06;;;4.96;60.28
13476;BME280;6810;63.824;20.288;2023-04-24T15:56:41;101118.97;;;4.91;59.55
13476;BME280;6810;63.824;20.288;2023-04-24T15:59:28;101112.81;;;4.91;59.08
13476;BME280;6810;63.824;20.288;2023-04-24T16:02:15;101117.09;;;4.95;53.20
13476;BME280;6810;63.824;20.288;2023-04-24T16:05:06;101110.91;;;4.96;55.52
13476;BME280;6810;63.824;20.288;2023-04-24T16:07:53;101111.78;;;4.96;56.31
13476;BME280;6810;63.824;20.288;2023-04-24T16:10:40;101114.41;;;4.96;56.76
13476;BME280;6810;63.824;20.288;2023-04-24T16:13:27;101103.06;;;4.93;57.87
13476;BME280;6810;63.824;20.288;2023-04-24T16:16:14;101118.91;;;4.93;58.39
13476;BME280;6810;63.824;20.288;2023-04-24T16:19:01;101112.81;;;4.91;57.99
13476;BME280;6810;63.824;20.288;2023-04-24T16:21:49;101108.44;;;4.90;57.13
13476;BME280;6810;63.824;20.288;2023-04-24T16:24:36;101112.84;;;4.89;58.72
13476;BME280;6810;63.824;20.288;2023-04-24T16:27:24;101059.38;;;4.52;58.19
13476;BME280;6810;63.824;20.288;2023-04-24T16:30:11;101059.03;;;4.64;58.47
13476;BME280;6810;63.824;20.288;2023-04-24T16:32:58;101119.88;;;4.90;58.25
13476;BME280;6810;63.824;20.288;2023-04-24T16:35:45;101107.66;;;4.86;58.33
13476;BME280;6810;63.824;20.288;2023-04-24T16:38:33;101111.91;;;4.92;58.51
13476;BME280;6810;63.824;20.288;2023-04-24T16:41:20;101103.13;;;4.91;58.10
13476;BME280;6810;63.824;20.288;2023-04-24T16:44:08;101094.31;;;4.91;57.51
13476;BME280;6810;63.824;20.288;2023-04-24T16:46:55;101086.34;;;4.92;58.19
13476;BME280;6810;63.824;20.288;2023-04-24T16:49:42;101084.63;;;4.91;58.49
13476;BME280;6810;63.824;20.288;2023-04-24T16:52:29;101074.19;;;4.87;58.31
13476;BME280;6810;63.824;20.288;2023-04-24T16:55:16;101082.97;;;4.89;58.33
13476;BME280;6810;63.824;20.288;2023-04-24T16:58:03;101080.34;;;4.87;57.80
13476;BME280;6810;63.824;20.288;2023-04-24T17:00:50;101073.38;;;4.85;57.98
13476;BME280;6810;63.824;20.288;2023-04-24T17:03:37;101083.97;;;4.83;56.97
13476;BME280;6810;63.824;20.288;2023-04-24T17:06:25;101083.19;;;4.80;56.83
13476;BME280;6810;63.824;20.288;2023-04-24T17:09:11;101084.16;;;4.77;57.21
13476;BME280;6810;63.824;20.288;2023-04-24T17:11:58;101091.25;;;4.75;58.23
13476;BME280;6810;63.824;20.288;2023-04-24T17:14:45;101092.22;;;4.73;57.97
13476;BME280;6810;63.824;20.288;2023-04-24T17:17:32;101088.84;;;4.68;57.11
13476;BME280;6810;63.824;20.288;2023-04-24T17:20:19;101090.75;;;4.63;57.96
13476;BME280;6810;63.824;20.288;2023-04-24T17:23:06;101093.47;;;4.60;57.51
13476;BME280;6810;63.824;20.288;2023-04-24T17:25:53;101090.88;;;4.58;58.19
13476;BME280;6810;63.824;20.288;2023-04-24T17:28:40;101095.38;;;4.55;57.20
13476;BME280;6810;63.824;20.288;2023-04-24T17:31:27;101098.97;;;4.52;57.05
13476;BME280;6810;63.824;20.288;2023-04-24T17:34:14;101088.50;;;4.48;57.59
13476;BME280;6810;63.824;20.288;2023-04-24T17:37:01;101086.94;;;4.42;57.42
13476;BME280;6810;63.824;20.288;2023-04-24T17:39:49;101096.53;;;4.45;57.69
13476;BME280;6810;63.824;20.288;2023-04-24T17:42:36;101106.28;;;4.43;57.54
13476;BME280;6810;63.824;20.288;2023-04-24T17:45:23;101111.56;;;4.43;58.22
13476;BME280;6810;63.824;20.288;2023-04-24T17:48:13;101107.19;;;4.40;57.67
13476;BME280;6810;63.824;20.288;2023-04-24T17:51:00;101129.09;;;4.44;58.47
13476;BME280;6810;63.824;20.288;2023-04-24T17:53:47;101126.50;;;4.42;58.07
13476;BME280;6810;63.824;20.288;2023-04-24T17:56:34;101131.88;;;4.39;57.60
13476;BME280;6810;63.824;20.288;2023-04-24T17:59:21;101131.06;;;4.36;58.19
13476;BME280;6810;63.824;20.288;2023-04-24T18:02:08;101139.09;;;4.31;58.31
13476;BME280;6810;63.824;20.288;2023-04-24T18:04:55;101135.72;;;4.28;57.25
13476;BME280;6810;63.824;20.288;2023-04-24T18:07:42;101127.84;;;4.26;57.90
13476;BME280;6810;63.824;20.288;2023-04-24T18:10:31;101127.00;;;4.24;58.52
13476;BME280;6810;63.824;20.288;2023-04-24T18:13:18;101127.13;;;4.20;58.03
13476;BME280;6810;63.824;20.288;2023-04-24T18:16:05;101129.84;;;4.17;58.07
13476;BME280;6810;63.824;20.288;2023-04-24T18:18:52;101131.72;;;4.12;57.92
13476;BME280;6810;63.824;20.288;2023-04-24T18:21:39;101126.59;;;4.06;58.71
13476;BME280;6810;63.824;20.288;2023-04-24T18:24:26;101129.28;;;4.04;58.21
13476;BME280;6810;63.824;20.288;2023-04-24T18:27:13;101126.72;;;4.01;57.28
13476;BME280;6810;63.824;20.288;2023-04-24T18:30:00;101123.25;;;3.99;57.53
13476;BME280;6810;63.824;20.288;2023-04-24T18:32:48;101116.38;;;3.94;58.55
13476;BME280;6810;63.824;20.288;2023-04-24T18:35:36;101062.72;;;3.59;57.63
13476;BME280;6810;63.824;20.288;2023-04-24T18:38:23;101117.44;;;3.87;58.00
13476;BME280;6810;63.824;20.288;2023-04-24T18:41:10;101117.47;;;3.84;58.61
13476;BME280;6810;63.824;20.288;2023-04-24T18:43:57;101121.94;;;3.82;58.32
13476;BME280;6810;63.824;20.288;2023-04-24T18:46:44;101120.25;;;3.78;58.33
13476;BME280;6810;63.824;20.288;2023-04-24T18:49:31;101122.13;;;3.74;58.30
13476;BME280;6810;63.824;20.288;2023-04-24T18:52:18;101125.72;;;3.70;59.26
13476;BME280;6810;63.824;20.288;2023-04-24T18:55:06;101125.84;;;3.66;58.05
13476;BME280;6810;63.824;20.288;2023-04-24T18:57:53;101121.63;;;3.58;58.35
13476;BME280;6810;63.824;20.288;2023-04-24T19:00:40;101129.53;;;3.58;58.16
13476;BME280;6810;63.824;20.288;2023-04-24T19:03:27;101135.78;;;3.54;59.22
13476;BME280;6810;63.824;20.288;2023-04-24T19:06:14;101125.28;;;3.51;59.65
13476;BME280;6810;63.824;20.288;2023-04-24T19:09:01;101112.34;;;3.41;59.43
13476;BME280;6810;63.824;20.288;2023-04-24T19:11:48;101096.84;;;3.29;58.33
13476;BME280;6810;63.824;20.288;2023-04-24T19:14:36;101118.53;;;3.40;59.26
13476;BME280;6810;63.824;20.288;2023-04-24T19:17:23;101126.59;;;3.34;59.71
13476;BME280;6810;63.824;20.288;2023-04-24T19:20:10;101104.88;;;3.23;59.00
13476;BME280;6810;63.824;20.288;2023-04-24T19:22:57;101121.41;;;3.29;59.68
13476;BME280;6810;63.824;20.288;2023-04-24T19:25:44;101126.75;;;3.26;59.93
13476;BME280;6810;63.824;20.288;2023-04-24T19:28:31;101065.34;;;2.85;59.08
13476;BME280;6810;63.824;20.288;2023-04-24T19:31:18;101129.56;;;3.19;59.62
13476;BME280;6810;63.824;20.288;2023-04-24T19:34:05;101132.28;;;3.14;60.04
13476;BME280;6810;63.824;20.288;2023-04-24T19:36:52;101139.41;;;3.09;59.38
13476;BME280;6810;63.824;20.288;2023-04-24T19:39:39;101151.78;;;3.06;60.18
13476;BME280;6810;63.824;20.288;2023-04-24T19:42:26;101150.16;;;2.99;59.58
13476;BME280;6810;63.824;20.288;2023-04-24T19:45:13;101152.81;;;2.99;59.39
13476;BME280;6810;63.824;20.288;2023-04-24T19:48:00;101159.03;;;2.95;60.18
13476;BME280;6810;63.824;20.288;2023-04-24T19:50:48;101153.00;;;2.90;60.82
13476;BME280;6810;63.824;20.288;2023-04-24T19:53:35;101142.59;;;2.84;60.08
13476;BME280;6810;63.824;20.288;2023-04-24T19:56:22;101147.88;;;2.82;60.35
13476;BME280;6810;63.824;20.288;2023-04-24T19:59:08;101154.09;;;2.78;61.33
13476;BME280;6810;63.824;20.288;2023-04-24T20:01:57;101158.56;;;2.75;61.01
13476;BME280;6810;63.824;20.288;2023-04-24T20:04:44;101156.00;;;2.72;61.60
13476;BME280;6810;63.824;20.288;2023-04-24T20:07:32;101166.59;;;2.69;60.70
13476;BME280;6810;63.824;20.288;2023-04-24T20:10:18;101172.78;;;2.65;61.63
13476;BME280;6810;63.824;20.288;2023-04-24T20:13:05;101164.91;;;2.63;61.93
13476;BME280;6810;63.824;20.288;2023-04-24T20:15:52;101099.97;;;2.21;61.74
13476;BME280;6810;63.824;20.288;2023-04-24T20:18:39;101140.75;;;2.43;62.05
13476;BME280;6810;63.824;20.288;2023-04-24T20:21:27;101162.56;;;2.50;61.63
13476;BME280;6810;63.824;20.288;2023-04-24T20:24:14;101166.03;;;2.52;61.73
13476;BME280;6810;63.824;20.288;2023-04-24T20:27:01;101164.31;;;2.49;61.75
13476;BME280;6810;63.824;20.288;2023-04-24T20:29:48;101160.81;;;2.49;62.30
13476;BME280;6810;63.824;20.288;2023-04-24T20:32:35;101161.78;;;2.43;61.41
13476;BME280;6810;63.824;20.288;2023-04-24T20:35:22;101163.53;;;2.44;62.03
13476;BME280;6810;63.824;20.288;2023-04-24T20:38:09;101170.56;;;2.44;62.43
13476;BME280;6810;63.824;20.288;2023-04-24T20:40:56;101147.09;;;2.32;62.45
13476;BME280;6810;63.824;20.288;2023-04-24T20:43:43;101172.31;;;2.43;61.59
13476;BME280;6810;63.824;20.288;2023-04-24T20:46:30;101163.66;;;2.38;61.70
13476;BME280;6810;63.824;20.288;2023-04-24T20:49:17;101163.66;;;2.38;61.79
13476;BME280;6810;63.824;20.288;2023-04-24T20:52:04;101172.38;;;2.40;62.59
13476;BME280;6810;63.824;20.288;2023-04-24T20:54:51;101167.13;;;2.39;61.97
13476;BME280;6810;63.824;20.288;2023-04-24T20:57:38;101159.28;;;2.37;62.58
13476;BME280;6810;63.824;20.288;2023-04-24T21:00:27;101145.41;;;2.29;62.63
13476;BME280;6810;63.824;20.288;2023-04-24T21:03:15;101161.94;;;2.34;62.66
13476;BME280;6810;63.824;20.288;2023-04-24T21:06:02;101161.94;;;2.36;62.99
13476;BME280;6810;63.824;20.288;2023-04-24T21:08:49;101155.03;;;2.30;63.18
13476;BME280;6810;63.824;20.288;2023-04-24T21:11:36;101160.25;;;2.32;62.47
13476;BME280;6810;63.824;20.288;2023-04-24T21:14:23;101174.34;;;2.29;63.30
13476;BME280;6810;63.824;20.288;2023-04-24T21:17:10;101158.66;;;2.25;62.77
13476;BME280;6810;63.824;20.288;2023-04-24T21:19:57;101168.28;;;2.24;63.51
13476;BME280;6810;63.824;20.288;2023-04-24T21:22:44;101161.31;;;2.20;63.64
13476;BME280;6810;63.824;20.288;2023-04-24T21:25:31;101166.53;;;2.23;63.67
13476;BME280;6810;63.824;20.288;2023-04-24T21:28:19;101168.31;;;2.23;63.31
13476;BME280;6810;63.824;20.288;2023-04-24T21:31:06;101171.81;;;2.22;63.14